sensor_id;sensor_type;location;lat;lon;timestamp;P1;durP1;ratioP1;P2;durP2;ratioP2
23001;SDS011;11667;51.706;4.856;2022-12-11T00:00:26;170.92;;;48.52;;
23001;SDS011;11667;51.706;4.856;2022-12-11T00:02:55;189.87;;;50.30;;
23001;SDS011;11667;51.706;4.856;2022-12-11T00:05:25;182.82;;;50.33;;
23001;SDS011;11667;51.706;4.856;2022-12-11T00:07:54;163.15;;;47.98;;
23001;SDS011;11667;51.706;4.856;2022-12-11T00:10:24;165.88;;;48.80;;
23001;SDS011;11667;51.706;4.856;2022-12-11T00:12:54;167.68;;;49.88;;
23001;SDS011;11667;51.706;4.856;2022-12-11T00:15:23;175.00;;;51.50;;
23001;SDS011;11667;51.706;4.856;2022-12-11T00:17:53;171.13;;;49.35;;
23001;SDS011;11667;51.706;4.856;2022-12-11T00:20:22;157.95;;;48.73;;
23001;SDS011;11667;51.706;4.856;2022-12-11T00:22:52;168.87;;;49.50;;
23001;SDS011;11667;51.706;4.856;2022-12-11T00:25:21;181.80;;;50.35;;
23001;SDS011;11667;51.706;4.856;2022-12-11T00:27:50;167.03;;;50.55;;
23001;SDS011;11667;51.706;4.856;2022-12-11T00:30:20;157.12;;;47.98;;
23001;SDS011;11667;51.706;4.856;2022-12-11T00:32:52;161.07;;;48.17;;
23001;SDS011;11667;51.706;4.856;2022-12-11T00:35:22;158.95;;;49.60;;
23001;SDS011;11667;51.706;4.856;2022-12-11T00:37:51;158.45;;;47.80;;
23001;SDS011;11667;51.706;4.856;2022-12-11T00:40:22;159.85;;;49.23;;
23001;SDS011;11667;51.706;4.856;2022-12-11T00:42:51;161.30;;;48.25;;
23001;SDS011;11667;51.706;4.856;2022-12-11T00:45:20;164.37;;;49.30;;
23001;SDS011;11667;51.706;4.856;2022-12-11T00:47:49;157.35;;;49.35;;
23001;SDS011;11667;51.706;4.856;2022-12-11T00:50:18;144.22;;;46.42;;
23001;SDS011;11667;51.706;4.856;2022-12-11T00:52:48;123.07;;;43.95;;
23001;SDS011;11667;51.706;4.856;2022-12-11T00:55:17;118.13;;;41.63;;
23001;SDS011;11667;51.706;4.856;2022-12-11T00:57:46;107.55;;;39.88;;
23001;SDS011;11667;51.706;4.856;2022-12-11T01:00:21;106.12;;;39.27;;
23001;SDS011;11667;51.706;4.856;2022-12-11T01:02:50;112.20;;;38.55;;
23001;SDS011;11667;51.706;4.856;2022-12-11T01:05:20;101.78;;;38.50;;
23001;SDS011;11667;51.706;4.856;2022-12-11T01:07:49;98.70;;;37.03;;
23001;SDS011;11667;51.706;4.856;2022-12-11T01:10:19;95.97;;;35.17;;
23001;SDS011;11667;51.706;4.856;2022-12-11T01:12:53;96.00;;;36.60;;
23001;SDS011;11667;51.706;4.856;2022-12-11T01:15:25;95.17;;;36.70;;
23001;SDS011;11667;51.706;4.856;2022-12-11T01:17:55;92.92;;;36.17;;
23001;SDS011;11667;51.706;4.856;2022-12-11T01:20:25;95.70;;;36.05;;
23001;SDS011;11667;51.706;4.856;2022-12-11T01:22:56;88.55;;;35.92;;
23001;SDS011;11667;51.706;4.856;2022-12-11T01:25:27;89.75;;;37.00;;
23001;SDS011;11667;51.706;4.856;2022-12-11T01:27:56;92.37;;;36.80;;
23001;SDS011;11667;51.706;4.856;2022-12-11T01:30:26;91.35;;;36.88;;
23001;SDS011;11667;51.706;4.856;2022-12-11T01:32:55;89.67;;;36.33;;
23001;SDS011;11667;51.706;4.856;2022-12-11T01:35:25;96.32;;;38.58;;
23001;SDS011;11667;51.706;4.856;2022-12-11T01:37:54;97.75;;;38.83;;
23001;SDS011;11667;51.706;4.856;2022-12-11T01:40:24;91.92;;;37.35;;
23001;SDS011;11667;51.706;4.856;2022-12-11T01:42:53;87.92;;;37.20;;
23001;SDS011;11667;51.706;4.856;2022-12-11T01:47:58;85.15;;;35.73;;
23001;SDS011;11667;51.706;4.856;2022-12-11T01:50:35;83.67;;;35.20;;
23001;SDS011;11667;51.706;4.856;2022-12-11T01:53:07;86.20;;;35.40;;
23001;SDS011;11667;51.706;4.856;2022-12-11T01:55:38;88.62;;;34.90;;
23001;SDS011;11667;51.706;4.856;2022-12-11T01:58:08;78.50;;;33.23;;
23001;SDS011;11667;51.706;4.856;2022-12-11T02:00:38;79.62;;;34.35;;
23001;SDS011;11667;51.706;4.856;2022-12-11T02:03:08;79.77;;;33.55;;
23001;SDS011;11667;51.706;4.856;2022-12-11T02:05:37;75.05;;;32.03;;
23001;SDS011;11667;51.706;4.856;2022-12-11T02:08:07;76.75;;;32.17;;
23001;SDS011;11667;51.706;4.856;2022-12-11T02:13:24;69.58;;;29.85;;
23001;SDS011;11667;51.706;4.856;2022-12-11T02:16:05;67.15;;;29.32;;
23001;SDS011;11667;51.706;4.856;2022-12-11T02:21:25;68.12;;;28.62;;
23001;SDS011;11667;51.706;4.856;2022-12-11T02:24:04;65.95;;;28.75;;
23001;SDS011;11667;51.706;4.856;2022-12-11T02:31:48;68.52;;;28.57;;
23001;SDS011;11667;51.706;4.856;2022-12-11T02:34:27;70.15;;;28.30;;
23001;SDS011;11667;51.706;4.856;2022-12-11T02:37:01;68.50;;;29.10;;
23001;SDS011;11667;51.706;4.856;2022-12-11T02:39:34;72.27;;;29.90;;
23001;SDS011;11667;51.706;4.856;2022-12-11T02:42:05;57.00;;;23.10;;
23001;SDS011;11667;51.706;4.856;2022-12-11T02:44:35;71.35;;;30.15;;
23001;SDS011;11667;51.706;4.856;2022-12-11T02:47:06;74.47;;;30.97;;
23001;SDS011;11667;51.706;4.856;2022-12-11T02:49:38;75.95;;;29.45;;
23001;SDS011;11667;51.706;4.856;2022-12-11T02:52:09;75.08;;;31.15;;
23001;SDS011;11667;51.706;4.856;2022-12-11T02:54:40;73.22;;;31.52;;
23001;SDS011;11667;51.706;4.856;2022-12-11T02:57:20;77.08;;;31.87;;
23001;SDS011;11667;51.706;4.856;2022-12-11T02:59:53;72.78;;;30.40;;
23001;SDS011;11667;51.706;4.856;2022-12-11T03:02:23;73.15;;;29.70;;
23001;SDS011;11667;51.706;4.856;2022-12-11T03:04:52;70.72;;;29.55;;
23001;SDS011;11667;51.706;4.856;2022-12-11T03:07:25;68.57;;;28.80;;
23001;SDS011;11667;51.706;4.856;2022-12-11T03:09:56;72.05;;;29.72;;
23001;SDS011;11667;51.706;4.856;2022-12-11T03:12:33;73.47;;;30.45;;
23001;SDS011;11667;51.706;4.856;2022-12-11T03:15:05;73.97;;;30.15;;
23001;SDS011;11667;51.706;4.856;2022-12-11T03:17:38;73.57;;;30.82;;
23001;SDS011;11667;51.706;4.856;2022-12-11T03:20:27;72.27;;;30.08;;
23001;SDS011;11667;51.706;4.856;2022-12-11T03:23:07;77.70;;;30.60;;
23001;SDS011;11667;51.706;4.856;2022-12-11T03:28:28;80.22;;;31.70;;
23001;SDS011;11667;51.706;4.856;2022-12-11T03:30:58;84.35;;;34.40;;
23001;SDS011;11667;51.706;4.856;2022-12-11T03:33:40;79.80;;;32.28;;
23001;SDS011;11667;51.706;4.856;2022-12-11T03:36:13;76.10;;;31.42;;
23001;SDS011;11667;51.706;4.856;2022-12-11T03:38:45;79.97;;;34.33;;
23001;SDS011;11667;51.706;4.856;2022-12-11T03:43:45;84.00;;;33.23;;
23001;SDS011;11667;51.706;4.856;2022-12-11T03:46:16;89.77;;;35.80;;
23001;SDS011;11667;51.706;4.856;2022-12-11T03:48:48;89.77;;;36.17;;
23001;SDS011;11667;51.706;4.856;2022-12-11T03:51:17;94.40;;;36.00;;
23001;SDS011;11667;51.706;4.856;2022-12-11T03:53:47;92.85;;;36.68;;
23001;SDS011;11667;51.706;4.856;2022-12-11T03:56:17;91.57;;;37.53;;
23001;SDS011;11667;51.706;4.856;2022-12-11T03:58:48;94.35;;;37.65;;
23001;SDS011;11667;51.706;4.856;2022-12-11T04:01:17;92.90;;;37.53;;
23001;SDS011;11667;51.706;4.856;2022-12-11T04:03:46;92.37;;;37.58;;
23001;SDS011;11667;51.706;4.856;2022-12-11T04:06:16;80.32;;;35.35;;
23001;SDS011;11667;51.706;4.856;2022-12-11T04:08:45;86.42;;;35.58;;
23001;SDS011;11667;51.706;4.856;2022-12-11T04:11:15;83.50;;;34.78;;
23001;SDS011;11667;51.706;4.856;2022-12-11T04:14:03;85.42;;;34.33;;
23001;SDS011;11667;51.706;4.856;2022-12-11T04:16:53;78.60;;;32.50;;
23001;SDS011;11667;51.706;4.856;2022-12-11T04:19:22;75.08;;;31.57;;
23001;SDS011;11667;51.706;4.856;2022-12-11T04:22:10;75.00;;;30.85;;
23001;SDS011;11667;51.706;4.856;2022-12-11T04:24:59;67.82;;;29.48;;
23001;SDS011;11667;51.706;4.856;2022-12-11T04:27:29;63.42;;;28.38;;
23001;SDS011;11667;51.706;4.856;2022-12-11T04:30:18;70.17;;;28.55;;
23001;SDS011;11667;51.706;4.856;2022-12-11T04:32:50;69.60;;;28.83;;
23001;SDS011;11667;51.706;4.856;2022-12-11T04:35:20;65.57;;;27.35;;
23001;SDS011;11667;51.706;4.856;2022-12-11T04:37:50;62.95;;;28.17;;
23001;SDS011;11667;51.706;4.856;2022-12-11T04:40:20;62.88;;;27.55;;
23001;SDS011;11667;51.706;4.856;2022-12-11T04:42:50;59.65;;;26.45;;
23001;SDS011;11667;51.706;4.856;2022-12-11T04:45:20;59.48;;;25.95;;
23001;SDS011;11667;51.706;4.856;2022-12-11T04:47:49;57.62;;;26.62;;
23001;SDS011;11667;51.706;4.856;2022-12-11T04:50:19;59.95;;;27.35;;
23001;SDS011;11667;51.706;4.856;2022-12-11T04:52:48;65.47;;;29.27;;
23001;SDS011;11667;51.706;4.856;2022-12-11T04:55:18;68.12;;;31.00;;
23001;SDS011;11667;51.706;4.856;2022-12-11T04:57:47;72.32;;;31.60;;
23001;SDS011;11667;51.706;4.856;2022-12-11T05:00:16;76.80;;;33.70;;
23001;SDS011;11667;51.706;4.856;2022-12-11T05:02:46;72.80;;;33.83;;
23001;SDS011;11667;51.706;4.856;2022-12-11T05:05:15;74.30;;;33.58;;
23001;SDS011;11667;51.706;4.856;2022-12-11T05:07:45;70.83;;;32.30;;
23001;SDS011;11667;51.706;4.856;2022-12-11T05:10:14;70.75;;;31.85;;
23001;SDS011;11667;51.706;4.856;2022-12-11T05:12:43;66.33;;;31.65;;
23001;SDS011;11667;51.706;4.856;2022-12-11T05:15:13;62.08;;;29.48;;
23001;SDS011;11667;51.706;4.856;2022-12-11T05:17:42;56.68;;;26.27;;
23001;SDS011;11667;51.706;4.856;2022-12-11T05:20:11;56.35;;;26.50;;
23001;SDS011;11667;51.706;4.856;2022-12-11T05:22:41;53.33;;;25.75;;
23001;SDS011;11667;51.706;4.856;2022-12-11T05:25:10;56.55;;;27.85;;
23001;SDS011;11667;51.706;4.856;2022-12-11T05:27:40;56.15;;;26.60;;
23001;SDS011;11667;51.706;4.856;2022-12-11T05:30:10;55.25;;;26.73;;
23001;SDS011;11667;51.706;4.856;2022-12-11T05:32:39;52.25;;;24.45;;
23001;SDS011;11667;51.706;4.856;2022-12-11T05:35:08;46.70;;;23.05;;
23001;SDS011;11667;51.706;4.856;2022-12-11T05:37:38;46.65;;;21.87;;
23001;SDS011;11667;51.706;4.856;2022-12-11T05:40:09;47.03;;;23.60;;
23001;SDS011;11667;51.706;4.856;2022-12-11T05:42:42;45.92;;;22.60;;
23001;SDS011;11667;51.706;4.856;2022-12-11T05:45:11;44.27;;;22.55;;
23001;SDS011;11667;51.706;4.856;2022-12-11T05:47:41;45.23;;;21.93;;
23001;SDS011;11667;51.706;4.856;2022-12-11T05:50:10;46.90;;;22.82;;
23001;SDS011;11667;51.706;4.856;2022-12-11T05:52:39;46.02;;;24.12;;
23001;SDS011;11667;51.706;4.856;2022-12-11T05:55:09;51.37;;;24.12;;
23001;SDS011;11667;51.706;4.856;2022-12-11T05:57:39;50.05;;;25.25;;
23001;SDS011;11667;51.706;4.856;2022-12-11T06:00:10;47.30;;;24.95;;
23001;SDS011;11667;51.706;4.856;2022-12-11T06:02:39;51.65;;;25.43;;
23001;SDS011;11667;51.706;4.856;2022-12-11T06:05:09;45.43;;;23.42;;
23001;SDS011;11667;51.706;4.856;2022-12-11T06:07:39;47.90;;;25.32;;
23001;SDS011;11667;51.706;4.856;2022-12-11T06:10:09;51.13;;;27.40;;
23001;SDS011;11667;51.706;4.856;2022-12-11T06:12:39;50.55;;;26.37;;
23001;SDS011;11667;51.706;4.856;2022-12-11T06:15:08;56.15;;;28.50;;
23001;SDS011;11667;51.706;4.856;2022-12-11T06:17:38;56.45;;;28.23;;
23001;SDS011;11667;51.706;4.856;2022-12-11T06:20:09;53.48;;;27.07;;
23001;SDS011;11667;51.706;4.856;2022-12-11T06:22:38;53.35;;;26.68;;
23001;SDS011;11667;51.706;4.856;2022-12-11T06:25:08;56.08;;;26.68;;
23001;SDS011;11667;51.706;4.856;2022-12-11T06:27:38;54.98;;;26.95;;
23001;SDS011;11667;51.706;4.856;2022-12-11T06:30:08;53.85;;;27.30;;
23001;SDS011;11667;51.706;4.856;2022-12-11T06:32:38;58.38;;;27.87;;
23001;SDS011;11667;51.706;4.856;2022-12-11T06:35:07;56.13;;;28.25;;
23001;SDS011;11667;51.706;4.856;2022-12-11T06:37:38;59.93;;;28.27;;
23001;SDS011;11667;51.706;4.856;2022-12-11T06:40:08;55.90;;;27.27;;
23001;SDS011;11667;51.706;4.856;2022-12-11T06:42:39;58.83;;;26.70;;
23001;SDS011;11667;51.706;4.856;2022-12-11T06:45:09;57.03;;;27.77;;
23001;SDS011;11667;51.706;4.856;2022-12-11T06:47:39;59.30;;;28.30;;
23001;SDS011;11667;51.706;4.856;2022-12-11T06:50:08;57.95;;;28.30;;
23001;SDS011;11667;51.706;4.856;2022-12-11T06:52:38;58.17;;;28.87;;
23001;SDS011;11667;51.706;4.856;2022-12-11T06:55:07;56.95;;;26.93;;
23001;SDS011;11667;51.706;4.856;2022-12-11T06:57:38;55.43;;;27.25;;
23001;SDS011;11667;51.706;4.856;2022-12-11T07:00:07;56.63;;;27.75;;
23001;SDS011;11667;51.706;4.856;2022-12-11T07:02:37;58.17;;;28.90;;
23001;SDS011;11667;51.706;4.856;2022-12-11T07:05:07;58.92;;;28.67;;
23001;SDS011;11667;51.706;4.856;2022-12-11T07:07:37;56.83;;;27.60;;
23001;SDS011;11667;51.706;4.856;2022-12-11T07:10:07;61.92;;;28.83;;
23001;SDS011;11667;51.706;4.856;2022-12-11T07:12:37;59.53;;;28.73;;
23001;SDS011;11667;51.706;4.856;2022-12-11T07:15:08;61.25;;;28.00;;
23001;SDS011;11667;51.706;4.856;2022-12-11T07:17:38;60.20;;;27.85;;
23001;SDS011;11667;51.706;4.856;2022-12-11T07:20:08;61.40;;;29.00;;
23001;SDS011;11667;51.706;4.856;2022-12-11T07:22:38;62.08;;;29.02;;
23001;SDS011;11667;51.706;4.856;2022-12-11T07:25:09;63.68;;;29.42;;
23001;SDS011;11667;51.706;4.856;2022-12-11T07:27:39;63.60;;;29.90;;
23001;SDS011;11667;51.706;4.856;2022-12-11T07:30:09;60.70;;;29.23;;
23001;SDS011;11667;51.706;4.856;2022-12-11T07:32:38;62.30;;;28.60;;
23001;SDS011;11667;51.706;4.856;2022-12-11T07:35:08;63.30;;;28.65;;
23001;SDS011;11667;51.706;4.856;2022-12-11T07:37:44;60.63;;;27.70;;
23001;SDS011;11667;51.706;4.856;2022-12-11T07:40:09;58.78;;;26.85;;
23001;SDS011;11667;51.706;4.856;2022-12-11T07:42:39;59.35;;;26.00;;
23001;SDS011;11667;51.706;4.856;2022-12-11T07:45:10;54.48;;;24.32;;
23001;SDS011;11667;51.706;4.856;2022-12-11T07:47:40;53.02;;;24.87;;
23001;SDS011;11667;51.706;4.856;2022-12-11T07:50:10;50.65;;;24.27;;
23001;SDS011;11667;51.706;4.856;2022-12-11T07:52:39;55.88;;;25.85;;
23001;SDS011;11667;51.706;4.856;2022-12-11T07:55:09;48.52;;;22.32;;
23001;SDS011;11667;51.706;4.856;2022-12-11T07:57:39;49.15;;;21.77;;
23001;SDS011;11667;51.706;4.856;2022-12-11T08:00:08;51.10;;;22.77;;
23001;SDS011;11667;51.706;4.856;2022-12-11T08:02:41;50.85;;;22.25;;
23001;SDS011;11667;51.706;4.856;2022-12-11T08:05:11;50.05;;;22.98;;
23001;SDS011;11667;51.706;4.856;2022-12-11T08:07:40;46.65;;;21.82;;
23001;SDS011;11667;51.706;4.856;2022-12-11T08:10:09;48.85;;;22.48;;
23001;SDS011;11667;51.706;4.856;2022-12-11T08:12:39;49.65;;;22.98;;
23001;SDS011;11667;51.706;4.856;2022-12-11T08:15:09;50.03;;;22.48;;
23001;SDS011;11667;51.706;4.856;2022-12-11T08:17:39;50.80;;;22.58;;
23001;SDS011;11667;51.706;4.856;2022-12-11T08:20:08;50.30;;;22.48;;
23001;SDS011;11667;51.706;4.856;2022-12-11T08:22:38;52.95;;;23.73;;
23001;SDS011;11667;51.706;4.856;2022-12-11T08:25:07;47.83;;;22.15;;
23001;SDS011;11667;51.706;4.856;2022-12-11T08:27:38;51.23;;;23.25;;
23001;SDS011;11667;51.706;4.856;2022-12-11T08:30:07;52.75;;;23.40;;
23001;SDS011;11667;51.706;4.856;2022-12-11T08:32:38;49.77;;;22.48;;
23001;SDS011;11667;51.706;4.856;2022-12-11T08:35:10;51.85;;;22.90;;
23001;SDS011;11667;51.706;4.856;2022-12-11T08:37:39;47.83;;;22.22;;
23001;SDS011;11667;51.706;4.856;2022-12-11T08:40:09;49.80;;;22.73;;
23001;SDS011;11667;51.706;4.856;2022-12-11T08:42:39;50.17;;;23.38;;
23001;SDS011;11667;51.706;4.856;2022-12-11T08:45:08;51.20;;;21.93;;
23001;SDS011;11667;51.706;4.856;2022-12-11T08:47:38;50.55;;;23.35;;
23001;SDS011;11667;51.706;4.856;2022-12-11T08:50:08;48.17;;;22.65;;
23001;SDS011;11667;51.706;4.856;2022-12-11T08:52:38;50.50;;;23.30;;
23001;SDS011;11667;51.706;4.856;2022-12-11T08:55:07;49.65;;;22.65;;
23001;SDS011;11667;51.706;4.856;2022-12-11T08:57:37;50.83;;;23.35;;
23001;SDS011;11667;51.706;4.856;2022-12-11T09:00:07;51.60;;;22.93;;
23001;SDS011;11667;51.706;4.856;2022-12-11T09:02:39;52.85;;;22.95;;
23001;SDS011;11667;51.706;4.856;2022-12-11T09:05:09;55.15;;;24.85;;
23001;SDS011;11667;51.706;4.856;2022-12-11T09:07:39;52.90;;;24.07;;
23001;SDS011;11667;51.706;4.856;2022-12-11T09:10:08;52.73;;;24.40;;
23001;SDS011;11667;51.706;4.856;2022-12-11T09:12:38;53.38;;;24.25;;
23001;SDS011;11667;51.706;4.856;2022-12-11T09:15:08;49.75;;;22.42;;
23001;SDS011;11667;51.706;4.856;2022-12-11T09:17:38;52.88;;;23.15;;
23001;SDS011;11667;51.706;4.856;2022-12-11T09:20:08;54.30;;;24.37;;
23001;SDS011;11667;51.706;4.856;2022-12-11T09:22:38;56.40;;;23.70;;
23001;SDS011;11667;51.706;4.856;2022-12-11T09:25:09;60.37;;;24.27;;
23001;SDS011;11667;51.706;4.856;2022-12-11T09:27:38;54.95;;;23.87;;
23001;SDS011;11667;51.706;4.856;2022-12-11T09:30:08;57.80;;;23.52;;
23001;SDS011;11667;51.706;4.856;2022-12-11T09:32:37;56.25;;;24.85;;
23001;SDS011;11667;51.706;4.856;2022-12-11T09:35:07;58.63;;;24.45;;
23001;SDS011;11667;51.706;4.856;2022-12-11T09:37:38;60.10;;;25.55;;
23001;SDS011;11667;51.706;4.856;2022-12-11T09:40:08;56.05;;;24.00;;
23001;SDS011;11667;51.706;4.856;2022-12-11T09:43:17;61.70;;;26.52;;
23001;SDS011;11667;51.706;4.856;2022-12-11T09:45:20;65.25;;;27.07;;
23001;SDS011;11667;51.706;4.856;2022-12-11T09:47:51;66.87;;;26.60;;
23001;SDS011;11667;51.706;4.856;2022-12-11T09:50:29;65.45;;;27.37;;
23001;SDS011;11667;51.706;4.856;2022-12-11T09:53:13;69.87;;;28.35;;
23001;SDS011;11667;51.706;4.856;2022-12-11T09:55:53;71.45;;;29.05;;
23001;SDS011;11667;51.706;4.856;2022-12-11T09:58:39;68.60;;;28.52;;
23001;SDS011;11667;51.706;4.856;2022-12-11T10:06:38;75.42;;;29.52;;
23001;SDS011;11667;51.706;4.856;2022-12-11T10:09:24;74.42;;;28.42;;
23001;SDS011;11667;51.706;4.856;2022-12-11T10:12:34;75.15;;;30.65;;
23001;SDS011;11667;51.706;4.856;2022-12-11T10:17:53;78.52;;;30.75;;
23001;SDS011;11667;51.706;4.856;2022-12-11T10:20:30;72.30;;;29.65;;
23001;SDS011;11667;51.706;4.856;2022-12-11T10:23:02;74.32;;;29.57;;
23001;SDS011;11667;51.706;4.856;2022-12-11T10:25:40;69.03;;;27.70;;
23001;SDS011;11667;51.706;4.856;2022-12-11T10:28:13;77.90;;;29.52;;
23001;SDS011;11667;51.706;4.856;2022-12-11T10:30:47;79.63;;;30.37;;
23001;SDS011;11667;51.706;4.856;2022-12-11T10:34:14;76.17;;;29.87;;
23001;SDS011;11667;51.706;4.856;2022-12-11T10:36:08;78.45;;;30.92;;
23001;SDS011;11667;51.706;4.856;2022-12-11T10:38:42;72.35;;;30.10;;
23001;SDS011;11667;51.706;4.856;2022-12-11T10:41:15;74.65;;;29.45;;
23001;SDS011;11667;51.706;4.856;2022-12-11T10:43:47;77.53;;;30.97;;
23001;SDS011;11667;51.706;4.856;2022-12-11T10:46:21;73.50;;;30.43;;
23001;SDS011;11667;51.706;4.856;2022-12-11T10:48:55;78.87;;;29.87;;
23001;SDS011;11667;51.706;4.856;2022-12-11T10:54:16;77.78;;;31.15;;
23001;SDS011;11667;51.706;4.856;2022-12-11T10:59:04;73.87;;;30.35;;
23001;SDS011;11667;51.706;4.856;2022-12-11T11:01:33;72.82;;;30.25;;
23001;SDS011;11667;51.706;4.856;2022-12-11T11:04:12;74.70;;;30.43;;
23001;SDS011;11667;51.706;4.856;2022-12-11T11:06:36;70.28;;;28.90;;
23001;SDS011;11667;51.706;4.856;2022-12-11T11:09:21;77.53;;;30.48;;
23001;SDS011;11667;51.706;4.856;2022-12-11T11:11:53;70.57;;;28.83;;
23001;SDS011;11667;51.706;4.856;2022-12-11T11:14:23;71.33;;;29.77;;
23001;SDS011;11667;51.706;4.856;2022-12-11T11:16:55;73.95;;;29.35;;
23001;SDS011;11667;51.706;4.856;2022-12-11T11:19:26;68.47;;;28.40;;
23001;SDS011;11667;51.706;4.856;2022-12-11T11:22:05;72.27;;;28.60;;
23001;SDS011;11667;51.706;4.856;2022-12-11T11:27:30;71.03;;;29.63;;
23001;SDS011;11667;51.706;4.856;2022-12-11T11:30:04;69.27;;;28.47;;
23001;SDS011;11667;51.706;4.856;2022-12-11T11:32:36;66.15;;;27.40;;
23001;SDS011;11667;51.706;4.856;2022-12-11T11:37:52;68.62;;;27.77;;
23001;SDS011;11667;51.706;4.856;2022-12-11T11:40:28;66.37;;;27.53;;
23001;SDS011;11667;51.706;4.856;2022-12-11T11:43:15;65.03;;;27.10;;
23001;SDS011;11667;51.706;4.856;2022-12-11T11:51:27;59.73;;;25.77;;
23001;SDS011;11667;51.706;4.856;2022-12-11T11:53:50;60.75;;;26.73;;
23001;SDS011;11667;51.706;4.856;2022-12-11T11:56:26;61.40;;;25.20;;
23001;SDS011;11667;51.706;4.856;2022-12-11T12:01:42;63.60;;;26.50;;
23001;SDS011;11667;51.706;4.856;2022-12-11T12:04:11;63.78;;;26.65;;
23001;SDS011;11667;51.706;4.856;2022-12-11T12:09:31;62.35;;;25.95;;
23001;SDS011;11667;51.706;4.856;2022-12-11T12:14:58;63.92;;;26.37;;
23001;SDS011;11667;51.706;4.856;2022-12-11T12:17:34;60.80;;;26.73;;
23001;SDS011;11667;51.706;4.856;2022-12-11T12:22:50;63.98;;;27.07;;
23001;SDS011;11667;51.706;4.856;2022-12-11T12:25:28;64.03;;;26.80;;
23001;SDS011;11667;51.706;4.856;2022-12-11T12:33:45;60.05;;;26.40;;
23001;SDS011;11667;51.706;4.856;2022-12-11T12:38:52;61.20;;;26.70;;
23001;SDS011;11667;51.706;4.856;2022-12-11T12:41:29;60.88;;;25.82;;
23001;SDS011;11667;51.706;4.856;2022-12-11T12:46:59;63.75;;;27.02;;
23001;SDS011;11667;51.706;4.856;2022-12-11T12:49:45;62.25;;;26.07;;
23001;SDS011;11667;51.706;4.856;2022-12-11T12:52:14;61.90;;;26.15;;
23001;SDS011;11667;51.706;4.856;2022-12-11T12:54:50;60.12;;;25.97;;
23001;SDS011;11667;51.706;4.856;2022-12-11T12:57:40;57.13;;;25.00;;
23001;SDS011;11667;51.706;4.856;2022-12-11T13:00:12;56.25;;;24.75;;
23001;SDS011;11667;51.706;4.856;2022-12-11T13:02:49;39.67;;;18.48;;
23001;SDS011;11667;51.706;4.856;2022-12-11T13:05:20;53.55;;;24.05;;
23001;SDS011;11667;51.706;4.856;2022-12-11T13:07:55;54.58;;;23.90;;
23001;SDS011;11667;51.706;4.856;2022-12-11T13:10:29;56.35;;;25.23;;
23001;SDS011;11667;51.706;4.856;2022-12-11T13:13:03;55.45;;;24.85;;
23001;SDS011;11667;51.706;4.856;2022-12-11T13:15:37;51.65;;;23.73;;
23001;SDS011;11667;51.706;4.856;2022-12-11T13:20:59;49.65;;;22.93;;
23001;SDS011;11667;51.706;4.856;2022-12-11T13:23:33;50.38;;;21.70;;
23001;SDS011;11667;51.706;4.856;2022-12-11T13:26:03;48.68;;;21.65;;
23001;SDS011;11667;51.706;4.856;2022-12-11T13:28:44;47.38;;;22.42;;
23001;SDS011;11667;51.706;4.856;2022-12-11T13:33:53;47.62;;;21.73;;
23001;SDS011;11667;51.706;4.856;2022-12-11T13:38:54;44.93;;;21.05;;
23001;SDS011;11667;51.706;4.856;2022-12-11T13:41:26;41.65;;;20.17;;
23001;SDS011;11667;51.706;4.856;2022-12-11T13:43:56;41.00;;;20.02;;
23001;SDS011;11667;51.706;4.856;2022-12-11T13:46:27;40.30;;;19.32;;
23001;SDS011;11667;51.706;4.856;2022-12-11T13:48:58;43.55;;;19.35;;
23001;SDS011;11667;51.706;4.856;2022-12-11T13:51:30;42.77;;;21.10;;
23001;SDS011;11667;51.706;4.856;2022-12-11T13:54:11;38.98;;;19.15;;
23001;SDS011;11667;51.706;4.856;2022-12-11T13:57:00;39.15;;;19.17;;
23001;SDS011;11667;51.706;4.856;2022-12-11T13:59:35;40.38;;;19.07;;
23001;SDS011;11667;51.706;4.856;2022-12-11T14:05:01;39.48;;;19.07;;
23001;SDS011;11667;51.706;4.856;2022-12-11T14:07:34;35.70;;;17.98;;
23001;SDS011;11667;51.706;4.856;2022-12-11T14:10:06;41.53;;;19.42;;
23001;SDS011;11667;51.706;4.856;2022-12-11T14:12:38;42.67;;;20.55;;
23001;SDS011;11667;51.706;4.856;2022-12-11T14:15:19;45.75;;;22.22;;
23001;SDS011;11667;51.706;4.856;2022-12-11T14:17:49;44.73;;;21.57;;
23001;SDS011;11667;51.706;4.856;2022-12-11T14:20:19;45.83;;;22.00;;
23001;SDS011;11667;51.706;4.856;2022-12-11T14:22:50;50.33;;;23.13;;
23001;SDS011;11667;51.706;4.856;2022-12-11T14:25:21;48.23;;;22.95;;
23001;SDS011;11667;51.706;4.856;2022-12-11T14:27:53;46.90;;;21.52;;
23001;SDS011;11667;51.706;4.856;2022-12-11T14:30:24;47.93;;;23.12;;
23001;SDS011;11667;51.706;4.856;2022-12-11T14:32:56;46.58;;;22.48;;
23001;SDS011;11667;51.706;4.856;2022-12-11T14:35:29;46.83;;;21.73;;
23001;SDS011;11667;51.706;4.856;2022-12-11T14:38:06;45.40;;;20.12;;
23001;SDS011;11667;51.706;4.856;2022-12-11T14:40:55;44.25;;;21.20;;
23001;SDS011;11667;51.706;4.856;2022-12-11T14:43:27;42.08;;;19.60;;
23001;SDS011;11667;51.706;4.856;2022-12-11T14:46:12;40.35;;;20.05;;
23001;SDS011;11667;51.706;4.856;2022-12-11T14:48:42;40.43;;;20.00;;
23001;SDS011;11667;51.706;4.856;2022-12-11T14:51:13;41.25;;;20.37;;
23001;SDS011;11667;51.706;4.856;2022-12-11T14:53:45;45.95;;;21.57;;
23001;SDS011;11667;51.706;4.856;2022-12-11T14:56:18;43.10;;;20.23;;
23001;SDS011;11667;51.706;4.856;2022-12-11T14:58:56;40.63;;;19.10;;
23001;SDS011;11667;51.706;4.856;2022-12-11T15:01:32;41.33;;;20.30;;
23001;SDS011;11667;51.706;4.856;2022-12-11T15:04:15;43.60;;;20.57;;
23001;SDS011;11667;51.706;4.856;2022-12-11T15:06:44;39.92;;;19.42;;
23001;SDS011;11667;51.706;4.856;2022-12-11T15:09:16;41.50;;;20.87;;
23001;SDS011;11667;51.706;4.856;2022-12-11T15:12:13;41.98;;;20.70;;
23001;SDS011;11667;51.706;4.856;2022-12-11T15:14:49;45.60;;;21.15;;
23001;SDS011;11667;51.706;4.856;2022-12-11T15:17:19;43.15;;;21.33;;
23001;SDS011;11667;51.706;4.856;2022-12-11T15:19:52;45.80;;;22.25;;
23001;SDS011;11667;51.706;4.856;2022-12-11T15:22:24;51.42;;;22.80;;
23001;SDS011;11667;51.706;4.856;2022-12-11T15:24:56;51.33;;;23.60;;
23001;SDS011;11667;51.706;4.856;2022-12-11T15:30:14;49.55;;;23.65;;
23001;SDS011;11667;51.706;4.856;2022-12-11T15:32:46;50.00;;;23.47;;
23001;SDS011;11667;51.706;4.856;2022-12-11T15:35:22;43.55;;;22.27;;
23001;SDS011;11667;51.706;4.856;2022-12-11T15:37:54;47.23;;;22.48;;
23001;SDS011;11667;51.706;4.856;2022-12-11T15:40:25;50.67;;;24.10;;
23001;SDS011;11667;51.706;4.856;2022-12-11T15:42:55;50.48;;;24.92;;
23001;SDS011;11667;51.706;4.856;2022-12-11T15:45:25;51.28;;;24.32;;
23001;SDS011;11667;51.706;4.856;2022-12-11T15:47:55;49.50;;;24.77;;
23001;SDS011;11667;51.706;4.856;2022-12-11T15:50:26;50.00;;;24.67;;
23001;SDS011;11667;51.706;4.856;2022-12-11T15:52:57;51.02;;;24.32;;
23001;SDS011;11667;51.706;4.856;2022-12-11T15:55:26;49.20;;;24.90;;
23001;SDS011;11667;51.706;4.856;2022-12-11T15:57:59;50.98;;;25.20;;
23001;SDS011;11667;51.706;4.856;2022-12-11T16:00:30;48.53;;;24.00;;
23001;SDS011;11667;51.706;4.856;2022-12-11T16:03:00;49.45;;;23.62;;
23001;SDS011;11667;51.706;4.856;2022-12-11T16:05:29;46.23;;;22.82;;
23001;SDS011;11667;51.706;4.856;2022-12-11T16:07:58;49.83;;;24.00;;